Terminal Aerodrome Forecast
Issued by NWS

Home | Current Version | Previous Version | Text Only | Print | Product List | Glossary On
Versions: 1 2 3 4 5 6 7 8 9 10 11 12 13 14 15 16
768
FTUS43 KGRB 011317 AAA
TAFMTW
TAF AMD
KMTW 011317Z 0113/0212 02010G19KT P6SM -RA OVC018
     FM011600 03012G20KT P6SM VCSH SCT018 BKN035
     FM012300 04009KT P6SM SCT100
     FM020900 02005KT P6SM SKC=

USA.gov is the U.S. government's official web portal to all federal, state and local government web resources and services.